sensor_id;sensor_type;location;lat;lon;timestamp;temperature;humidity
63771;DHT22;60282;43.862;18.430;2022-09-03T00:00:18;15.50;99.90
63771;DHT22;60282;43.862;18.430;2022-09-03T00:02:56;13.80;99.90
63771;DHT22;60282;43.862;18.430;2022-09-03T00:08:20;15.40;99.90
63771;DHT22;60282;43.862;18.430;2022-09-03T00:10:57;15.50;99.90
63771;DHT22;60282;43.862;18.430;2022-09-03T00:13:32;15.40;99.90
63771;DHT22;60282;43.862;18.430;2022-09-03T00:16:00;15.40;99.90
63771;DHT22;60282;43.862;18.430;2022-09-03T00:18:31;15.40;99.90
63771;DHT22;60282;43.862;18.430;2022-09-03T00:21:04;15.40;99.90
63771;DHT22;60282;43.862;18.430;2022-09-03T00:23:38;15.40;99.90
63771;DHT22;60282;43.862;18.430;2022-09-03T00:29:01;15.30;99.90
63771;DHT22;60282;43.862;18.430;2022-09-03T00:31:35;17.80;99.90
63771;DHT22;60282;43.862;18.430;2022-09-03T00:36:57;15.30;99.90
63771;DHT22;60282;43.862;18.430;2022-09-03T00:39:25;15.30;99.90
63771;DHT22;60282;43.862;18.430;2022-09-03T00:42:10;15.30;99.90
63771;DHT22;60282;43.862;18.430;2022-09-03T00:55:54;15.40;99.90
63771;DHT22;60282;43.862;18.430;2022-09-03T01:00:59;15.30;99.90
63771;DHT22;60282;43.862;18.430;2022-09-03T01:06:28;15.30;99.90
63771;DHT22;60282;43.862;18.430;2022-09-03T01:17:00;15.30;99.90
63771;DHT22;60282;43.862;18.430;2022-09-03T01:31:22;15.30;99.90
63771;DHT22;60282;43.862;18.430;2022-09-03T01:37:01;15.30;99.90
63771;DHT22;60282;43.862;18.430;2022-09-03T01:59:03;15.50;99.90
63771;DHT22;60282;43.862;18.430;2022-09-03T02:02:02;15.20;99.90
63771;DHT22;60282;43.862;18.430;2022-09-03T02:04:28;15.20;99.90
63771;DHT22;60282;43.862;18.430;2022-09-03T02:06:57;15.40;99.90
63771;DHT22;60282;43.862;18.430;2022-09-03T02:09:25;15.30;99.90
63771;DHT22;60282;43.862;18.430;2022-09-03T02:11:57;15.10;99.90
63771;DHT22;60282;43.862;18.430;2022-09-03T02:14:25;15.10;99.90
63771;DHT22;60282;43.862;18.430;2022-09-03T02:16:52;15.40;99.90
63771;DHT22;60282;43.862;18.430;2022-09-03T02:21:49;15.10;99.90
63771;DHT22;60282;43.862;18.430;2022-09-03T02:24:17;15.10;99.90
63771;DHT22;60282;43.862;18.430;2022-09-03T02:26:43;15.10;99.90
63771;DHT22;60282;43.862;18.430;2022-09-03T02:29:09;15.00;99.90
63771;DHT22;60282;43.862;18.430;2022-09-03T02:31:35;15.10;99.90
63771;DHT22;60282;43.862;18.430;2022-09-03T02:34:01;15.60;99.90
63771;DHT22;60282;43.862;18.430;2022-09-03T02:36:31;15.10;99.90
63771;DHT22;60282;43.862;18.430;2022-09-03T02:38:58;15.10;99.90
63771;DHT22;60282;43.862;18.430;2022-09-03T02:41:24;15.10;99.90
63771;DHT22;60282;43.862;18.430;2022-09-03T02:47:00;15.20;99.90
63771;DHT22;60282;43.862;18.430;2022-09-03T02:49:28;15.20;99.90
63771;DHT22;60282;43.862;18.430;2022-09-03T02:52:07;15.30;99.90
63771;DHT22;60282;43.862;18.430;2022-09-03T02:54:37;15.20;99.90
63771;DHT22;60282;43.862;18.430;2022-09-03T02:57:14;15.20;99.90
63771;DHT22;60282;43.862;18.430;2022-09-03T02:59:40;15.30;99.90
63771;DHT22;60282;43.862;18.430;2022-09-03T03:02:09;15.20;99.90
63771;DHT22;60282;43.862;18.430;2022-09-03T03:04:36;15.20;99.90
63771;DHT22;60282;43.862;18.430;2022-09-03T03:07:03;15.30;99.90
63771;DHT22;60282;43.862;18.430;2022-09-03T03:09:29;15.20;99.90
63771;DHT22;60282;43.862;18.430;2022-09-03T03:11:54;14.90;99.90
63771;DHT22;60282;43.862;18.430;2022-09-03T03:14:21;15.30;99.90
63771;DHT22;60282;43.862;18.430;2022-09-03T03:16:49;15.30;99.90
63771;DHT22;60282;43.862;18.430;2022-09-03T03:19:14;15.30;99.90
63771;DHT22;60282;43.862;18.430;2022-09-03T03:24:06;15.30;99.90
63771;DHT22;60282;43.862;18.430;2022-09-03T03:26:33;16.10;99.90
63771;DHT22;60282;43.862;18.430;2022-09-03T03:29:00;15.30;99.90
63771;DHT22;60282;43.862;18.430;2022-09-03T03:31:30;15.30;99.90
63771;DHT22;60282;43.862;18.430;2022-09-03T03:33:58;15.30;99.90
63771;DHT22;60282;43.862;18.430;2022-09-03T03:36:28;15.30;99.90
63771;DHT22;60282;43.862;18.430;2022-09-03T03:38:55;15.30;99.90
63771;DHT22;60282;43.862;18.430;2022-09-03T03:41:27;15.30;99.90
63771;DHT22;60282;43.862;18.430;2022-09-03T03:43:55;15.30;99.90
63771;DHT22;60282;43.862;18.430;2022-09-03T03:46:22;15.40;99.90
63771;DHT22;60282;43.862;18.430;2022-09-03T03:48:49;15.40;99.90
63771;DHT22;60282;43.862;18.430;2022-09-03T03:51:15;15.40;99.90
63771;DHT22;60282;43.862;18.430;2022-09-03T03:53:40;18.40;99.90
63771;DHT22;60282;43.862;18.430;2022-09-03T03:56:09;15.40;99.90
63771;DHT22;60282;43.862;18.430;2022-09-03T03:58:36;15.40;99.90
63771;DHT22;60282;43.862;18.430;2022-09-03T04:01:10;15.40;99.90
63771;DHT22;60282;43.862;18.430;2022-09-03T04:03:37;12.60;99.90
63771;DHT22;60282;43.862;18.430;2022-09-03T04:06:03;15.40;99.90
63771;DHT22;60282;43.862;18.430;2022-09-03T04:08:32;12.60;99.90
63771;DHT22;60282;43.862;18.430;2022-09-03T04:11:00;15.40;99.90
63771;DHT22;60282;43.862;18.430;2022-09-03T04:13:33;15.40;99.90
63771;DHT22;60282;43.862;18.430;2022-09-03T04:16:02;15.40;99.90
63771;DHT22;60282;43.862;18.430;2022-09-03T04:18:29;15.40;99.90
63771;DHT22;60282;43.862;18.430;2022-09-03T04:21:01;16.10;99.90
63771;DHT22;60282;43.862;18.430;2022-09-03T04:23:30;15.40;99.90
63771;DHT22;60282;43.862;18.430;2022-09-03T04:25:56;15.40;99.90
63771;DHT22;60282;43.862;18.430;2022-09-03T04:28:22;15.40;99.90
63771;DHT22;60282;43.862;18.430;2022-09-03T04:30:47;15.30;99.90
63771;DHT22;60282;43.862;18.430;2022-09-03T04:33:13;15.30;99.90
63771;DHT22;60282;43.862;18.430;2022-09-03T04:35:39;15.40;99.90
63771;DHT22;60282;43.862;18.430;2022-09-03T04:38:06;15.40;99.90
63771;DHT22;60282;43.862;18.430;2022-09-03T04:40:32;15.40;99.90
63771;DHT22;60282;43.862;18.430;2022-09-03T04:42:58;15.40;99.90
63771;DHT22;60282;43.862;18.430;2022-09-03T04:45:25;15.40;99.90
63771;DHT22;60282;43.862;18.430;2022-09-03T04:48:03;15.40;99.90
63771;DHT22;60282;43.862;18.430;2022-09-03T04:50:31;15.40;99.90
63771;DHT22;60282;43.862;18.430;2022-09-03T04:53:02;15.40;99.90
63771;DHT22;60282;43.862;18.430;2022-09-03T04:55:32;15.40;99.90
63771;DHT22;60282;43.862;18.430;2022-09-03T04:57:58;15.40;99.90
63771;DHT22;60282;43.862;18.430;2022-09-03T05:00:26;15.40;99.90
63771;DHT22;60282;43.862;18.430;2022-09-03T05:02:52;15.40;99.90
63771;DHT22;60282;43.862;18.430;2022-09-03T05:05:18;15.40;99.90
63771;DHT22;60282;43.862;18.430;2022-09-03T05:07:44;15.40;99.90
63771;DHT22;60282;43.862;18.430;2022-09-03T05:10:12;15.40;99.90
63771;DHT22;60282;43.862;18.430;2022-09-03T05:12:40;12.20;99.90
63771;DHT22;60282;43.862;18.430;2022-09-03T05:15:07;15.40;99.90
63771;DHT22;60282;43.862;18.430;2022-09-03T05:17:33;14.60;99.90
63771;DHT22;60282;43.862;18.430;2022-09-03T05:19:59;14.10;99.90
63771;DHT22;60282;43.862;18.430;2022-09-03T05:22:25;15.50;99.90
63771;DHT22;60282;43.862;18.430;2022-09-03T05:24:51;15.50;99.90
63771;DHT22;60282;43.862;18.430;2022-09-03T05:27:18;15.60;99.90
63771;DHT22;60282;43.862;18.430;2022-09-03T05:29:45;15.60;99.90
63771;DHT22;60282;43.862;18.430;2022-09-03T05:32:12;15.70;99.90
63771;DHT22;60282;43.862;18.430;2022-09-03T05:34:38;15.60;99.90
63771;DHT22;60282;43.862;18.430;2022-09-03T05:37:04;15.70;99.90
63771;DHT22;60282;43.862;18.430;2022-09-03T05:39:31;15.80;99.90
63771;DHT22;60282;43.862;18.430;2022-09-03T05:41:57;15.80;99.90
63771;DHT22;60282;43.862;18.430;2022-09-03T05:44:23;15.90;99.90
63771;DHT22;60282;43.862;18.430;2022-09-03T05:46:51;15.90;99.90
63771;DHT22;60282;43.862;18.430;2022-09-03T05:49:20;15.90;99.90
63771;DHT22;60282;43.862;18.430;2022-09-03T05:51:46;15.90;99.90
63771;DHT22;60282;43.862;18.430;2022-09-03T05:54:12;16.00;99.90
63771;DHT22;60282;43.862;18.430;2022-09-03T05:56:38;16.00;99.90
63771;DHT22;60282;43.862;18.430;2022-09-03T05:59:06;16.10;99.90
63771;DHT22;60282;43.862;18.430;2022-09-03T06:01:35;17.30;99.90
63771;DHT22;60282;43.862;18.430;2022-09-03T06:04:06;16.20;99.90
63771;DHT22;60282;43.862;18.430;2022-09-03T06:06:35;16.20;99.90
63771;DHT22;60282;43.862;18.430;2022-09-03T06:09:08;16.30;99.90
63771;DHT22;60282;43.862;18.430;2022-09-03T06:11:36;16.30;99.90
63771;DHT22;60282;43.862;18.430;2022-09-03T06:14:05;16.50;99.90
63771;DHT22;60282;43.862;18.430;2022-09-03T06:16:33;16.50;99.90
63771;DHT22;60282;43.862;18.430;2022-09-03T06:18:59;18.60;99.90
63771;DHT22;60282;43.862;18.430;2022-09-03T06:21:25;16.40;99.90
63771;DHT22;60282;43.862;18.430;2022-09-03T06:23:56;16.60;99.90
63771;DHT22;60282;43.862;18.430;2022-09-03T06:26:22;16.60;99.90
63771;DHT22;60282;43.862;18.430;2022-09-03T06:28:49;16.70;99.90
63771;DHT22;60282;43.862;18.430;2022-09-03T06:31:16;16.80;99.90
63771;DHT22;60282;43.862;18.430;2022-09-03T06:33:44;16.80;99.90
63771;DHT22;60282;43.862;18.430;2022-09-03T06:36:12;16.90;99.90
63771;DHT22;60282;43.862;18.430;2022-09-03T06:38:41;16.90;99.90
63771;DHT22;60282;43.862;18.430;2022-09-03T06:41:09;17.00;99.90
63771;DHT22;60282;43.862;18.430;2022-09-03T06:43:37;17.00;99.90
63771;DHT22;60282;43.862;18.430;2022-09-03T06:46:11;17.20;99.90
63771;DHT22;60282;43.862;18.430;2022-09-03T06:48:38;17.10;99.90
63771;DHT22;60282;43.862;18.430;2022-09-03T06:51:08;17.10;99.90
63771;DHT22;60282;43.862;18.430;2022-09-03T06:53:39;17.10;99.90
63771;DHT22;60282;43.862;18.430;2022-09-03T06:56:08;17.20;99.90
63771;DHT22;60282;43.862;18.430;2022-09-03T06:58:45;17.20;99.90
63771;DHT22;60282;43.862;18.430;2022-09-03T07:01:25;17.20;99.90
63771;DHT22;60282;43.862;18.430;2022-09-03T07:03:54;17.20;99.90
63771;DHT22;60282;43.862;18.430;2022-09-03T07:06:24;17.20;99.90
63771;DHT22;60282;43.862;18.430;2022-09-03T07:08:51;15.10;99.90
63771;DHT22;60282;43.862;18.430;2022-09-03T07:11:21;17.20;99.90
63771;DHT22;60282;43.862;18.430;2022-09-03T07:13:49;19.40;99.90
63771;DHT22;60282;43.862;18.430;2022-09-03T07:16:45;17.20;99.90
63771;DHT22;60282;43.862;18.430;2022-09-03T07:19:34;17.30;99.90
63771;DHT22;60282;43.862;18.430;2022-09-03T07:22:14;17.40;99.90
63771;DHT22;60282;43.862;18.430;2022-09-03T07:24:44;15.60;99.90
63771;DHT22;60282;43.862;18.430;2022-09-03T07:27:12;17.40;99.90
63771;DHT22;60282;43.862;18.430;2022-09-03T07:29:37;17.40;99.90
63771;DHT22;60282;43.862;18.430;2022-09-03T07:32:06;17.10;99.90
63771;DHT22;60282;43.862;18.430;2022-09-03T07:34:33;17.50;99.90
63771;DHT22;60282;43.862;18.430;2022-09-03T07:37:01;17.70;99.90
63771;DHT22;60282;43.862;18.430;2022-09-03T07:39:29;18.10;99.90
63771;DHT22;60282;43.862;18.430;2022-09-03T07:44:27;17.90;99.90
63771;DHT22;60282;43.862;18.430;2022-09-03T07:46:56;18.00;99.90
63771;DHT22;60282;43.862;18.430;2022-09-03T07:49:22;18.00;99.90
63771;DHT22;60282;43.862;18.430;2022-09-03T07:51:51;18.20;99.90
63771;DHT22;60282;43.862;18.430;2022-09-03T07:54:18;17.30;99.90
63771;DHT22;60282;43.862;18.430;2022-09-03T07:56:49;16.70;99.90
63771;DHT22;60282;43.862;18.430;2022-09-03T07:59:15;18.80;99.90
63771;DHT22;60282;43.862;18.430;2022-09-03T08:01:40;18.20;99.90
63771;DHT22;60282;43.862;18.430;2022-09-03T08:04:06;18.20;99.90
63771;DHT22;60282;43.862;18.430;2022-09-03T08:06:36;18.10;99.90
63771;DHT22;60282;43.862;18.430;2022-09-03T08:09:06;17.80;99.90
63771;DHT22;60282;43.862;18.430;2022-09-03T08:11:36;18.10;99.90
63771;DHT22;60282;43.862;18.430;2022-09-03T08:14:07;18.20;99.90
63771;DHT22;60282;43.862;18.430;2022-09-03T08:16:41;19.80;99.90
63771;DHT22;60282;43.862;18.430;2022-09-03T08:19:07;18.30;99.90
63771;DHT22;60282;43.862;18.430;2022-09-03T08:21:40;18.50;99.90
63771;DHT22;60282;43.862;18.430;2022-09-03T08:24:10;16.90;99.90
63771;DHT22;60282;43.862;18.430;2022-09-03T08:26:59;18.80;99.90
63771;DHT22;60282;43.862;18.430;2022-09-03T08:29:28;18.90;99.90
63771;DHT22;60282;43.862;18.430;2022-09-03T08:31:57;19.00;99.90
63771;DHT22;60282;43.862;18.430;2022-09-03T08:34:23;18.00;99.90
63771;DHT22;60282;43.862;18.430;2022-09-03T08:36:57;19.10;99.90
63771;DHT22;60282;43.862;18.430;2022-09-03T08:39:30;19.10;99.90
63771;DHT22;60282;43.862;18.430;2022-09-03T08:44:59;19.30;99.90
63771;DHT22;60282;43.862;18.430;2022-09-03T08:47:42;19.30;99.90
63771;DHT22;60282;43.862;18.430;2022-09-03T08:50:31;19.20;99.90
63771;DHT22;60282;43.862;18.430;2022-09-03T08:56:27;19.40;99.90
63771;DHT22;60282;43.862;18.430;2022-09-03T08:59:08;17.70;99.90
63771;DHT22;60282;43.862;18.430;2022-09-03T09:04:20;19.30;99.90
63771;DHT22;60282;43.862;18.430;2022-09-03T09:09:53;19.70;99.90
63771;DHT22;60282;43.862;18.430;2022-09-03T09:16:35;20.30;99.90
63771;DHT22;60282;43.862;18.430;2022-09-03T09:21:36;20.20;99.90
63771;DHT22;60282;43.862;18.430;2022-09-03T09:24:10;21.00;99.90
63771;DHT22;60282;43.862;18.430;2022-09-03T09:26:40;21.20;99.90
63771;DHT22;60282;43.862;18.430;2022-09-03T09:29:10;21.30;99.90
63771;DHT22;60282;43.862;18.430;2022-09-03T09:31:42;21.50;99.90
63771;DHT22;60282;43.862;18.430;2022-09-03T09:34:10;21.60;99.90
63771;DHT22;60282;43.862;18.430;2022-09-03T09:36:51;21.90;99.90
63771;DHT22;60282;43.862;18.430;2022-09-03T09:39:18;22.00;99.90
63771;DHT22;60282;43.862;18.430;2022-09-03T09:42:00;22.20;99.90
63771;DHT22;60282;43.862;18.430;2022-09-03T09:44:38;21.80;99.90
63771;DHT22;60282;43.862;18.430;2022-09-03T09:47:07;22.60;99.90
63771;DHT22;60282;43.862;18.430;2022-09-03T09:52:23;22.40;99.90
63771;DHT22;60282;43.862;18.430;2022-09-03T09:54:52;22.50;99.90
63771;DHT22;60282;43.862;18.430;2022-09-03T09:57:23;22.70;99.90
63771;DHT22;60282;43.862;18.430;2022-09-03T10:00:02;22.80;99.60
63771;DHT22;60282;43.862;18.430;2022-09-03T10:02:34;22.90;99.90
63771;DHT22;60282;43.862;18.430;2022-09-03T10:05:11;23.00;99.90
63771;DHT22;60282;43.862;18.430;2022-09-03T10:07:38;23.30;99.90
63771;DHT22;60282;43.862;18.430;2022-09-03T10:10:18;20.90;99.00
63771;DHT22;60282;43.862;18.430;2022-09-03T10:12:52;23.00;98.00
63771;DHT22;60282;43.862;18.430;2022-09-03T10:15:39;22.60;98.70
63771;DHT22;60282;43.862;18.430;2022-09-03T10:18:43;23.60;99.30
63771;DHT22;60282;43.862;18.430;2022-09-03T10:21:48;20.50;98.40
63771;DHT22;60282;43.862;18.430;2022-09-03T10:24:29;23.50;99.20
63771;DHT22;60282;43.862;18.430;2022-09-03T10:26:58;23.40;99.10
63771;DHT22;60282;43.862;18.430;2022-09-03T10:29:27;24.40;98.90
63771;DHT22;60282;43.862;18.430;2022-09-03T10:32:02;23.40;97.00
63771;DHT22;60282;43.862;18.430;2022-09-03T10:34:46;20.90;96.70
63771;DHT22;60282;43.862;18.430;2022-09-03T10:37:40;21.60;97.10
63771;DHT22;60282;43.862;18.430;2022-09-03T10:51:35;23.50;98.00
63771;DHT22;60282;43.862;18.430;2022-09-03T10:54:15;23.60;97.10
63771;DHT22;60282;43.862;18.430;2022-09-03T11:05:27;23.50;97.00
63771;DHT22;60282;43.862;18.430;2022-09-03T11:08:02;23.90;96.50
63771;DHT22;60282;43.862;18.430;2022-09-03T11:10:34;25.80;97.40
63771;DHT22;60282;43.862;18.430;2022-09-03T11:13:12;23.80;97.10
63771;DHT22;60282;43.862;18.430;2022-09-03T11:15:59;24.10;97.10
63771;DHT22;60282;43.862;18.430;2022-09-03T11:18:36;24.40;96.60
63771;DHT22;60282;43.862;18.430;2022-09-03T11:21:10;24.40;96.10
63771;DHT22;60282;43.862;18.430;2022-09-03T11:23:40;24.60;96.20
63771;DHT22;60282;43.862;18.430;2022-09-03T11:26:09;24.60;95.70
63771;DHT22;60282;43.862;18.430;2022-09-03T11:29:08;24.60;95.40
63771;DHT22;60282;43.862;18.430;2022-09-03T11:34:56;23.30;95.50
63771;DHT22;60282;43.862;18.430;2022-09-03T11:37:25;25.20;95.70
63771;DHT22;60282;43.862;18.430;2022-09-03T11:40:13;25.30;95.00
63771;DHT22;60282;43.862;18.430;2022-09-03T11:42:44;25.30;94.30
63771;DHT22;60282;43.862;18.430;2022-09-03T11:45:35;25.30;94.90
63771;DHT22;60282;43.862;18.430;2022-09-03T11:48:35;27.50;95.60
63771;DHT22;60282;43.862;18.430;2022-09-03T11:51:01;25.80;94.30
63771;DHT22;60282;43.862;18.430;2022-09-03T11:53:37;25.70;94.40
63771;DHT22;60282;43.862;18.430;2022-09-03T11:58:41;25.80;93.00
63771;DHT22;60282;43.862;18.430;2022-09-03T12:01:16;25.60;93.30
63771;DHT22;60282;43.862;18.430;2022-09-03T12:04:05;26.20;92.70
63771;DHT22;60282;43.862;18.430;2022-09-03T12:16:20;24.40;90.30
63771;DHT22;60282;43.862;18.430;2022-09-03T12:18:41;26.70;90.70
63771;DHT22;60282;43.862;18.430;2022-09-03T12:21:09;26.70;90.90
63771;DHT22;60282;43.862;18.430;2022-09-03T12:23:41;26.50;91.90
63771;DHT22;60282;43.862;18.430;2022-09-03T12:28:46;27.00;90.80
63771;DHT22;60282;43.862;18.430;2022-09-03T12:31:25;27.30;90.80
63771;DHT22;60282;43.862;18.430;2022-09-03T12:34:02;27.70;88.90
63771;DHT22;60282;43.862;18.430;2022-09-03T12:36:43;29.50;90.30
63771;DHT22;60282;43.862;18.430;2022-09-03T12:39:15;24.60;86.20
63771;DHT22;60282;43.862;18.430;2022-09-03T12:42:05;27.70;90.20
63771;DHT22;60282;43.862;18.430;2022-09-03T12:44:38;24.40;85.80
63771;DHT22;60282;43.862;18.430;2022-09-03T12:49:39;27.40;89.10
63771;DHT22;60282;43.862;18.430;2022-09-03T12:54:46;27.30;89.20
63771;DHT22;60282;43.862;18.430;2022-09-03T12:57:16;27.30;87.60
63771;DHT22;60282;43.862;18.430;2022-09-03T12:59:43;27.20;88.60
63771;DHT22;60282;43.862;18.430;2022-09-03T13:02:22;26.60;88.30
63771;DHT22;60282;43.862;18.430;2022-09-03T13:04:52;27.50;85.90
63771;DHT22;60282;43.862;18.430;2022-09-03T13:10:29;27.60;84.80
63771;DHT22;60282;43.862;18.430;2022-09-03T13:13:01;27.20;84.90
63771;DHT22;60282;43.862;18.430;2022-09-03T13:15:28;27.00;85.50
63771;DHT22;60282;43.862;18.430;2022-09-03T13:18:22;27.20;86.50
63771;DHT22;60282;43.862;18.430;2022-09-03T13:21:09;27.20;85.10
63771;DHT22;60282;43.862;18.430;2022-09-03T13:23:56;26.80;83.90
63771;DHT22;60282;43.862;18.430;2022-09-03T13:31:57;27.00;84.00
63771;DHT22;60282;43.862;18.430;2022-09-03T13:34:49;26.70;84.80
63771;DHT22;60282;43.862;18.430;2022-09-03T13:40:01;26.80;84.00
63771;DHT22;60282;43.862;18.430;2022-09-03T13:42:38;24.40;83.80
63771;DHT22;60282;43.862;18.430;2022-09-03T13:48:38;28.20;83.00
63771;DHT22;60282;43.862;18.430;2022-09-03T13:51:43;28.70;80.40
63771;DHT22;60282;43.862;18.430;2022-09-03T13:54:41;29.40;78.20
63771;DHT22;60282;43.862;18.430;2022-09-03T13:58:19;30.60;78.10
63771;DHT22;60282;43.862;18.430;2022-09-03T14:00:41;30.10;71.40
63771;DHT22;60282;43.862;18.430;2022-09-03T14:12:18;30.10;70.10
63771;DHT22;60282;43.862;18.430;2022-09-03T14:15:46;29.90;70.00
63771;DHT22;60282;43.862;18.430;2022-09-03T14:17:51;29.80;68.90
63771;DHT22;60282;43.862;18.430;2022-09-03T14:26:34;28.40;72.80
63771;DHT22;60282;43.862;18.430;2022-09-03T14:29:15;25.50;73.10
63771;DHT22;60282;43.862;18.430;2022-09-03T14:32:17;27.30;76.40
63771;DHT22;60282;43.862;18.430;2022-09-03T14:40:17;27.90;76.10
63771;DHT22;60282;43.862;18.430;2022-09-03T15:00:05;31.60;66.30
63771;DHT22;60282;43.862;18.430;2022-09-03T15:08:33;31.90;64.40
63771;DHT22;60282;43.862;18.430;2022-09-03T15:11:23;32.00;65.20
63771;DHT22;60282;43.862;18.430;2022-09-03T15:14:19;31.30;64.10
63771;DHT22;60282;43.862;18.430;2022-09-03T15:22:12;31.30;66.40
63771;DHT22;60282;43.862;18.430;2022-09-03T15:24:52;32.60;66.30
63771;DHT22;60282;43.862;18.430;2022-09-03T15:27:55;31.50;65.40
63771;DHT22;60282;43.862;18.430;2022-09-03T15:30:44;31.80;65.30
63771;DHT22;60282;43.862;18.430;2022-09-03T15:33:28;32.10;67.00
63771;DHT22;60282;43.862;18.430;2022-09-03T15:36:12;31.60;65.40
63771;DHT22;60282;43.862;18.430;2022-09-03T15:44:15;30.60;64.60
63771;DHT22;60282;43.862;18.430;2022-09-03T15:46:53;32.20;65.30
63771;DHT22;60282;43.862;18.430;2022-09-03T15:58:13;32.50;63.60
63771;DHT22;60282;43.862;18.430;2022-09-03T16:01:02;32.60;63.90
63771;DHT22;60282;43.862;18.430;2022-09-03T16:13:07;31.20;64.70
63771;DHT22;60282;43.862;18.430;2022-09-03T16:15:57;31.30;65.90
63771;DHT22;60282;43.862;18.430;2022-09-03T16:18:36;30.20;67.20
63771;DHT22;60282;43.862;18.430;2022-09-03T16:21:45;29.60;68.90
63771;DHT22;60282;43.862;18.430;2022-09-03T16:24:17;27.70;71.50
63771;DHT22;60282;43.862;18.430;2022-09-03T16:26:56;27.50;75.10
63771;DHT22;60282;43.862;18.430;2022-09-03T16:29:26;26.90;75.40
63771;DHT22;60282;43.862;18.430;2022-09-03T16:32:26;26.50;77.40
63771;DHT22;60282;43.862;18.430;2022-09-03T16:38:10;25.70;80.70
63771;DHT22;60282;43.862;18.430;2022-09-03T16:43:44;25.00;84.80
63771;DHT22;60282;43.862;18.430;2022-09-03T16:49:27;24.40;87.50
63771;DHT22;60282;43.862;18.430;2022-09-03T16:52:10;24.10;89.10
63771;DHT22;60282;43.862;18.430;2022-09-03T16:55:47;23.90;90.50
63771;DHT22;60282;43.862;18.430;2022-09-03T16:58:13;23.70;91.20
63771;DHT22;60282;43.862;18.430;2022-09-03T17:00:58;22.00;91.60
63771;DHT22;60282;43.862;18.430;2022-09-03T17:03:38;23.40;93.10
63771;DHT22;60282;43.862;18.430;2022-09-03T17:06:09;23.20;93.90
63771;DHT22;60282;43.862;18.430;2022-09-03T17:17:17;21.60;97.00
63771;DHT22;60282;43.862;18.430;2022-09-03T17:19:52;22.50;98.50
63771;DHT22;60282;43.862;18.430;2022-09-03T17:31:04;21.90;99.90
63771;DHT22;60282;43.862;18.430;2022-09-03T17:36:58;21.50;99.90
63771;DHT22;60282;43.862;18.430;2022-09-03T17:42:37;21.50;99.90
63771;DHT22;60282;43.862;18.430;2022-09-03T17:45:40;21.40;99.90
63771;DHT22;60282;43.862;18.430;2022-09-03T17:48:15;21.30;99.90
63771;DHT22;60282;43.862;18.430;2022-09-03T17:53:49;21.10;99.90
63771;DHT22;60282;43.862;18.430;2022-09-03T17:56:53;21.00;99.90
63771;DHT22;60282;43.862;18.430;2022-09-03T18:01:57;20.90;99.90
63771;DHT22;60282;43.862;18.430;2022-09-03T18:04:47;22.30;99.90
63771;DHT22;60282;43.862;18.430;2022-09-03T18:15:20;20.30;99.90
63771;DHT22;60282;43.862;18.430;2022-09-03T18:18:01;20.40;99.90
63771;DHT22;60282;43.862;18.430;2022-09-03T18:20:31;20.20;99.90
63771;DHT22;60282;43.862;18.430;2022-09-03T18:23:30;20.00;99.90
63771;DHT22;60282;43.862;18.430;2022-09-03T18:26:24;19.60;99.90
63771;DHT22;60282;43.862;18.430;2022-09-03T18:35:07;19.20;99.90
63771;DHT22;60282;43.862;18.430;2022-09-03T18:37:51;19.20;99.90
63771;DHT22;60282;43.862;18.430;2022-09-03T18:41:03;19.20;99.90
63771;DHT22;60282;43.862;18.430;2022-09-03T18:50:45;18.70;99.90
63771;DHT22;60282;43.862;18.430;2022-09-03T18:56:43;17.30;99.90
63771;DHT22;60282;43.862;18.430;2022-09-03T18:59:57;18.60;99.90
63771;DHT22;60282;43.862;18.430;2022-09-03T19:15:22;18.20;99.90
63771;DHT22;60282;43.862;18.430;2022-09-03T19:21:08;18.10;99.90
63771;DHT22;60282;43.862;18.430;2022-09-03T19:23:59;18.10;99.90
63771;DHT22;60282;43.862;18.430;2022-09-03T19:27:12;18.00;99.90
63771;DHT22;60282;43.862;18.430;2022-09-03T19:30:17;15.00;99.90
63771;DHT22;60282;43.862;18.430;2022-09-03T19:33:33;17.90;99.90
63771;DHT22;60282;43.862;18.430;2022-09-03T19:43:18;17.80;99.90
63771;DHT22;60282;43.862;18.430;2022-09-03T19:46:53;17.70;99.90
63771;DHT22;60282;43.862;18.430;2022-09-03T19:53:27;17.70;99.90
63771;DHT22;60282;43.862;18.430;2022-09-03T19:56:12;17.60;99.90
63771;DHT22;60282;43.862;18.430;2022-09-03T19:59:02;17.60;99.90
63771;DHT22;60282;43.862;18.430;2022-09-03T20:01:47;17.50;99.90
63771;DHT22;60282;43.862;18.430;2022-09-03T20:04:40;17.50;99.90
63771;DHT22;60282;43.862;18.430;2022-09-03T20:07:27;17.50;99.90
63771;DHT22;60282;43.862;18.430;2022-09-03T20:10:12;20.80;99.90
63771;DHT22;60282;43.862;18.430;2022-09-03T20:15:42;17.50;99.90
63771;DHT22;60282;43.862;18.430;2022-09-03T20:21:11;17.50;99.90
63771;DHT22;60282;43.862;18.430;2022-09-03T20:32:06;17.40;99.90
63771;DHT22;60282;43.862;18.430;2022-09-03T20:44:59;17.30;99.90
63771;DHT22;60282;43.862;18.430;2022-09-03T20:47:59;14.30;99.90
63771;DHT22;60282;43.862;18.430;2022-09-03T20:50:31;17.30;99.90
63771;DHT22;60282;43.862;18.430;2022-09-03T20:56:14;17.30;99.90
63771;DHT22;60282;43.862;18.430;2022-09-03T20:58:49;17.30;99.90
63771;DHT22;60282;43.862;18.430;2022-09-03T21:04:21;19.10;99.90
63771;DHT22;60282;43.862;18.430;2022-09-03T21:15:44;19.10;99.90
63771;DHT22;60282;43.862;18.430;2022-09-03T21:18:39;19.20;99.90
63771;DHT22;60282;43.862;18.430;2022-09-03T21:24:14;19.50;99.90
63771;DHT22;60282;43.862;18.430;2022-09-03T21:26:45;19.60;99.90
63771;DHT22;60282;43.862;18.430;2022-09-03T21:32:09;19.60;99.90
63771;DHT22;60282;43.862;18.430;2022-09-03T21:34:42;20.00;99.90
63771;DHT22;60282;43.862;18.430;2022-09-03T21:37:11;19.60;99.90
63771;DHT22;60282;43.862;18.430;2022-09-03T21:39:54;19.50;99.90
63771;DHT22;60282;43.862;18.430;2022-09-03T21:42:29;19.40;99.90
63771;DHT22;60282;43.862;18.430;2022-09-03T21:47:49;19.10;99.90
63771;DHT22;60282;43.862;18.430;2022-09-03T21:55:55;18.90;99.90
63771;DHT22;60282;43.862;18.430;2022-09-03T22:03:59;18.40;99.90
63771;DHT22;60282;43.862;18.430;2022-09-03T22:09:24;17.90;99.90
63771;DHT22;60282;43.862;18.430;2022-09-03T22:11:56;18.20;99.90
63771;DHT22;60282;43.862;18.430;2022-09-03T22:14:28;18.50;99.90
63771;DHT22;60282;43.862;18.430;2022-09-03T22:19:31;18.70;99.90
63771;DHT22;60282;43.862;18.430;2022-09-03T22:22:05;19.00;99.90
63771;DHT22;60282;43.862;18.430;2022-09-03T22:25:07;20.20;99.90
63771;DHT22;60282;43.862;18.430;2022-09-03T22:41:54;19.20;99.90